Time;durP1;ratioP1;P1;durP2;ratioP2;P2;SDS_P1;SDS_P2;PMS_P1;PMS_P2;Temp;Humidity;BMP_temperature;BMP_pressure;BME280_temperature;BME280_humidity;BME280_pressure;Samples;Min_cycle;Max_cycle;Signal;HPM_P1;HPM_P2
2022/05/13 00:02:17;;;;;;;11.20;5.55;;;13.20;68.00;;;;;;4982594;28;20029;-82
2022/05/13 00:04:43;;;;;;;8.98;3.90;;;13.30;67.90;;;;;;4973991;28;20033;-82
2022/05/13 00:07:08;;;;;;;12.77;6.45;;;13.10;67.40;;;;;;4974242;28;20034;-82
2022/05/13 00:12:18;;;;;;;8.18;4.25;;;13.10;68.10;;;;;;4975688;28;20040;-82
2022/05/13 00:14:44;;;;;;;13.73;5.47;;;13.20;68.80;;;;;;4988401;28;20033;-82
2022/05/13 00:17:10;;;;;;;9.90;4.32;;;13.10;68.10;;;;;;4989056;28;20073;-82
2022/05/13 00:19:36;;;;;;;10.13;4.25;;;12.80;68.00;;;;;;4987212;28;20042;-82
2022/05/13 00:22:01;;;;;;;5.38;2.83;;;12.80;68.80;;;;;;4955653;28;20080;-81
2022/05/13 00:24:27;;;;;;;6.03;3.05;;;12.70;68.30;;;;;;4985949;28;20044;-81
2022/05/13 00:26:53;;;;;;;10.23;3.15;;;12.70;69.00;;;;;;4970880;28;20093;-81
2022/05/13 00:29:18;;;;;;;6.07;3.40;;;12.80;69.60;;;;;;4971734;28;20018;-81
2022/05/13 00:31:44;;;;;;;5.85;2.45;;;12.80;69.70;;;;;;4954162;28;20545;-82
2022/05/13 00:34:09;;;;;;;6.35;2.75;;;12.80;69.70;;;;;;4985191;28;20069;-82
2022/05/13 00:36:36;;;;;;;6.13;2.50;;;12.70;69.80;;;;;;4969395;28;20042;-82
2022/05/13 00:39:03;;;;;;;4.63;2.42;;;12.70;69.80;;;;;;4985980;28;20080;-81
2022/05/13 00:41:29;;;;;;;3.58;2.45;;;12.60;69.40;;;;;;4968476;28;20026;-82
2022/05/13 00:43:55;;;;;;;4.40;2.30;;;12.60;70.20;;;;;;4987970;28;20494;-82
2022/05/13 00:46:21;;;;;;;3.65;2.55;;;12.60;69.80;;;;;;4972019;28;20117;-81
2022/05/13 00:48:47;;;;;;;4.15;2.33;;;12.40;70.30;;;;;;4969151;28;20038;-82
2022/05/13 00:51:16;;;;;;;5.57;2.25;;;12.50;71.00;;;;;;4988151;28;20026;-82
2022/05/13 00:53:42;;;;;;;6.05;3.25;;;12.70;71.50;;;;;;4967902;28;20137;-81
2022/05/13 00:56:07;;;;;;;5.85;2.17;;;12.70;71.00;;;;;;4969978;28;20441;-81
2022/05/13 00:58:35;;;;;;;5.63;2.83;;;12.40;71.10;;;;;;4987659;28;20045;-81
2022/05/13 01:01:00;;;;;;;6.45;2.30;;;12.50;71.70;;;;;;4987018;28;20401;-81
2022/05/13 01:03:26;;;;;;;7.35;2.60;;;12.50;72.00;;;;;;4972464;28;20030;-81
2022/05/13 01:05:54;;;;;;;4.10;2.17;;;12.40;71.90;;;;;;4985231;28;20037;-81
2022/05/13 01:08:20;;;;;;;3.85;1.85;;;12.20;71.80;;;;;;4971588;28;20375;-82
2022/05/13 01:10:45;;;;;;;5.35;2.05;;;12.30;72.20;;;;;;4972465;28;20044;-81
2022/05/13 01:13:12;;;;;;;4.28;1.83;;;12.10;72.80;;;;;;4990282;28;20164;-82
2022/05/13 01:15:40;;;;;;;5.95;2.35;;;11.90;72.10;;;;;;4973385;28;20048;-80
2022/05/13 01:18:05;;;;;;;4.00;2.17;;;11.80;72.60;;;;;;4987485;28;20038;-81
2022/05/13 01:20:37;;;;;;;4.05;2.20;;;12.00;74.30;;;;;;4968589;28;20657;-81
2022/05/13 01:23:05;;;;;;;4.35;2.10;;;12.10;73.60;;;;;;4957168;28;20500;-81
2022/05/13 01:25:33;;;;;;;4.90;2.47;;;12.00;73.70;;;;;;4971833;28;20065;-81
2022/05/13 01:28:13;;;;;;;3.45;2.13;;;11.90;73.40;;;;;;4972912;28;20398;-81
2022/05/13 01:30:42;;;;;;;4.28;2.00;;;11.80;74.40;;;;;;4971032;28;20507;-81
2022/05/13 01:33:08;;;;;;;6.38;2.22;;;11.80;74.00;;;;;;4970577;28;20050;-81
2022/05/13 01:35:40;;;;;;;9.13;2.55;;;11.70;74.60;;;;;;4990219;28;20042;-81
2022/05/13 01:38:05;;;;;;;4.18;2.20;;;11.70;75.60;;;;;;4989857;28;20494;-81
2022/05/13 01:40:31;;;;;;;4.50;2.25;;;11.70;75.80;;;;;;4988264;28;20046;-81
2022/05/13 01:42:56;;;;;;;7.13;2.83;;;11.60;75.80;;;;;;4986806;28;20045;-81
2022/05/13 01:45:22;;;;;;;7.28;2.55;;;11.60;76.80;;;;;;4970063;28;20460;-82
2022/05/13 01:47:48;;;;;;;5.93;2.08;;;11.60;77.90;;;;;;4988187;28;20034;-81
2022/05/13 01:50:13;;;;;;;7.20;3.53;;;11.70;78.30;;;;;;4984754;28;20061;-81
2022/05/13 01:52:39;;;;;;;6.18;2.47;;;11.70;78.90;;;;;;4972619;28;20053;-81
2022/05/13 01:55:05;;;;;;;4.93;2.42;;;11.40;78.20;;;;;;4988498;28;20038;-81
2022/05/13 01:57:31;;;;;;;4.82;2.30;;;11.40;80.00;;;;;;4976513;28;20042;-81
2022/05/13 01:59:56;;;;;;;3.97;2.00;;;11.20;79.40;;;;;;4973623;28;20112;-81
2022/05/13 02:02:22;;;;;;;1.85;1.25;;;11.10;79.70;;;;;;4973964;28;20030;-81
2022/05/13 02:04:47;;;;;;;3.28;2.03;;;11.10;81.60;;;;;;4975243;28;20087;-81
2022/05/13 02:07:13;;;;;;;6.15;2.65;;;11.30;82.70;;;;;;4972570;28;20038;-81
2022/05/13 02:09:39;;;;;;;2.40;1.60;;;11.40;84.00;;;;;;4975217;28;20107;-81
2022/05/13 02:12:06;;;;;;;4.97;2.08;;;11.50;84.00;;;;;;4989366;28;20133;-82
2022/05/13 02:14:31;;;;;;;2.80;1.98;;;11.50;84.90;;;;;;4990118;28;20117;-81
2022/05/13 02:16:57;;;;;;;3.47;2.22;;;11.30;86.20;;;;;;4975588;28;20105;-81
2022/05/13 02:19:22;;;;;;;4.55;2.65;;;11.30;89.50;;;;;;4986358;28;20125;-81
2022/05/13 02:21:48;;;;;;;4.97;2.00;;;11.30;90.10;;;;;;4958175;28;20421;-81
2022/05/13 02:24:14;;;;;;;5.20;1.92;;;11.10;90.70;;;;;;4957414;28;20030;-81
2022/05/13 02:26:39;;;;;;;2.72;1.98;;;11.10;91.00;;;;;;4989686;28;20055;-81
2022/05/13 02:29:06;;;;;;;7.75;2.35;;;11.00;90.70;;;;;;4988973;28;20025;-81
2022/05/13 02:31:31;;;;;;;3.13;2.15;;;11.10;92.40;;;;;;4975316;28;20041;-81
2022/05/13 02:33:57;;;;;;;5.32;2.30;;;11.00;92.00;;;;;;4989130;28;20026;-82
2022/05/13 02:36:23;;;;;;;2.88;2.10;;;11.00;92.80;;;;;;4992256;28;20030;-82
2022/05/13 02:38:49;;;;;;;3.78;1.67;;;10.90;92.10;;;;;;4975829;28;20032;-82
2022/05/13 02:41:14;;;;;;;3.92;1.65;;;10.90;93.40;;;;;;4973675;28;20029;-82
2022/05/13 02:43:40;;;;;;;3.60;2.08;;;11.00;94.20;;;;;;4975154;28;20461;-82
2022/05/13 02:46:05;;;;;;;3.40;2.28;;;11.60;94.10;;;;;;5006586;28;20037;-81
2022/05/13 02:48:31;;;;;;;1.75;1.55;;;10.90;93.80;;;;;;4986760;28;20081;-82
2022/05/13 02:50:56;;;;;;;6.10;3.10;;;10.90;93.70;;;;;;4963720;28;20473;-82
2022/05/13 02:53:22;;;;;;;4.43;2.05;;;10.90;94.00;;;;;;4975329;28;20029;-82
2022/05/13 02:55:48;;;;;;;4.95;1.88;;;10.70;94.90;;;;;;4973748;28;20031;-82
2022/05/13 02:58:14;;;;;;;4.05;1.90;;;10.70;95.00;;;;;;4972604;28;20037;-81
2022/05/13 03:00:39;;;;;;;4.45;2.30;;;10.70;94.80;;;;;;4988899;28;20042;-79
2022/05/13 03:03:05;;;;;;;4.50;2.45;;;10.80;96.00;;;;;;4970635;28;20359;-78
2022/05/13 03:05:32;;;;;;;3.67;1.75;;;10.80;96.40;;;;;;4988144;28;20561;-78
2022/05/13 03:08:00;;;;;;;4.88;1.83;;;10.90;95.60;;;;;;4954286;28;20390;-78
2022/05/13 03:10:29;;;;;;;5.70;2.03;;;10.90;96.30;;;;;;4960449;28;20284;-78
2022/05/13 03:12:56;;;;;;;4.15;1.63;;;11.00;96.30;;;;;;4959458;28;20538;-78
2022/05/13 03:15:21;;;;;;;2.00;1.08;;;10.90;97.10;;;;;;4972882;28;20049;-78
2022/05/13 03:17:47;;;;;;;1.42;1.10;;;11.10;98.20;;;;;;4987048;28;20700;-78
2022/05/13 03:20:15;;;;;;;0.95;0.52;;;10.80;98.60;;;;;;4988195;28;20038;-78
2022/05/13 03:22:41;;;;;;;6.40;1.38;;;10.80;98.30;;;;;;4988346;28;20030;-78
2022/05/13 03:25:07;;;;;;;4.30;1.67;;;10.80;98.70;;;;;;4971486;28;20036;-78
2022/05/13 03:27:33;;;;;;;6.30;1.80;;;11.00;98.50;;;;;;4972426;28;20038;-78
2022/05/13 03:29:58;;;;;;;7.10;1.70;;;11.00;98.40;;;;;;4976186;28;20092;-78
2022/05/13 03:32:24;;;;;;;5.85;2.05;;;11.20;97.60;;;;;;4988573;28;20540;-78
2022/05/13 03:34:49;;;;;;;4.72;1.63;;;11.50;97.80;;;;;;4987848;28;20444;-78
2022/05/13 03:37:15;;;;;;;5.53;1.75;;;11.30;97.50;;;;;;4989622;28;20034;-78
2022/05/13 03:39:41;;;;;;;3.60;1.48;;;11.30;97.80;;;;;;4972479;28;20038;-78
2022/05/13 03:42:07;;;;;;;4.57;1.75;;;11.10;97.90;;;;;;4992426;28;20034;-78
2022/05/13 03:44:32;;;;;;;5.13;1.60;;;11.10;98.60;;;;;;4989131;28;20120;-79
2022/05/13 03:46:59;;;;;;;3.80;1.58;;;11.00;98.90;;;;;;4971733;28;20539;-77
2022/05/13 03:49:25;;;;;;;4.30;1.30;;;11.00;98.70;;;;;;4988981;28;20033;-78
2022/05/13 03:51:50;;;;;;;2.38;1.40;;;11.00;98.90;;;;;;4956386;28;20023;-78
2022/05/13 03:54:16;;;;;;;2.75;1.30;;;11.10;98.70;;;;;;4988863;28;20034;-78
2022/05/13 03:56:42;;;;;;;3.47;1.38;;;11.00;99.00;;;;;;4974240;28;20022;-78
2022/05/13 03:59:07;;;;;;;3.63;1.30;;;11.10;99.00;;;;;;4970099;28;20056;-78
2022/05/13 04:01:33;;;;;;;3.75;1.50;;;11.10;99.40;;;;;;4990749;28;20116;-78
2022/05/13 04:03:58;;;;;;;5.25;1.38;;;11.00;99.80;;;;;;4972840;28;20030;-78
2022/05/13 04:09:08;;;;;;;4.72;1.40;;;10.90;99.80;;;;;;4978823;28;20060;-78
2022/05/13 04:11:37;;;;;;;2.95;1.40;;;11.00;99.90;;;;;;4971496;28;20452;-78
2022/05/13 04:16:52;;;;;;;3.30;1.55;;;11.10;99.80;;;;;;4989155;28;20041;-78
2022/05/13 04:19:18;;;;;;;5.15;1.52;;;10.90;99.90;;;;;;4987985;28;20112;-78
2022/05/13 04:21:44;;;;;;;6.22;1.77;;;11.00;99.90;;;;;;4956428;28;20030;-78
2022/05/13 04:24:11;;;;;;;6.47;2.08;;;11.20;99.70;;;;;;4987151;28;20435;-78
2022/05/13 04:26:37;;;;;;;6.68;1.30;;;11.10;99.50;;;;;;4956217;28;20471;-78
2022/05/13 04:29:03;;;;;;;5.35;1.35;;;10.90;99.90;;;;;;4970220;28;20089;-78
2022/05/13 04:31:30;;;;;;;4.57;1.67;;;11.00;99.90;;;;;;4972068;28;20545;-78
2022/05/13 04:33:56;;;;;;;2.38;1.40;;;11.20;99.90;;;;;;4987267;28;20025;-78
2022/05/13 04:36:22;;;;;;;5.18;1.50;;;11.40;99.80;;;;;;4967935;28;20401;-78
2022/05/13 04:38:47;;;;;;;8.75;1.23;;;11.30;99.90;;;;;;4952100;28;20030;-78
2022/05/13 04:43:57;;;;;;;2.65;1.30;;;11.40;99.90;;;;;;4988226;28;20418;-78
2022/05/13 04:46:23;;;;;;;2.95;1.30;;;11.50;99.90;;;;;;4986246;28;20034;-78
2022/05/13 04:48:49;;;;;;;3.85;1.20;;;10.70;99.90;;;;;;4968658;28;20116;-78
2022/05/13 04:51:17;;;;;;;2.75;1.20;;;11.40;99.90;;;;;;4970189;28;20029;-78
2022/05/13 04:53:43;;;;;;;5.85;1.75;;;11.50;99.90;;;;;;4969266;28;20057;-78
2022/05/13 04:56:09;;;;;;;2.75;1.20;;;11.50;99.90;;;;;;4970323;28;20127;-78
2022/05/13 04:58:34;;;;;;;11.88;2.00;;;11.40;99.90;;;;;;4971208;28;20034;-78
2022/05/13 05:01:00;;;;;;;3.10;1.35;;;11.40;99.90;;;;;;4960182;28;20034;-78
2022/05/13 05:03:27;;;;;;;8.77;1.52;;;11.50;99.90;;;;;;4968643;28;20038;-79
2022/05/13 05:05:53;;;;;;;3.60;1.10;;;11.60;99.90;;;;;;4952847;28;20042;-78
2022/05/13 05:08:19;;;;;;;6.65;1.90;;;11.60;99.90;;;;;;4971004;28;20030;-78
2022/05/13 05:10:44;;;;;;;7.05;1.48;;;11.70;99.90;;;;;;4982435;28;20096;-79
2022/05/13 05:13:15;;;;;;;5.78;1.42;;;11.70;99.90;;;;;;4987919;28;20056;-78
2022/05/13 05:15:42;;;;;;;7.75;1.88;;;11.90;99.90;;;;;;4984209;28;20046;-78
2022/05/13 05:18:08;;;;;;;4.43;1.10;;;12.00;99.90;;;;;;4970881;28;20030;-78
2022/05/13 05:20:34;;;;;;;1.25;1.00;;;12.10;99.90;;;;;;4956730;28;20050;-79
2022/05/13 05:22:59;;;;;;;3.35;1.30;;;12.20;99.80;;;;;;4987121;28;20045;-78
2022/05/13 05:25:28;;;;;;;4.90;1.38;;;12.30;99.70;;;;;;4974485;28;20506;-78
2022/05/13 05:27:57;;;;;;;5.63;1.67;;;12.30;99.20;;;;;;4971358;28;20030;-78
2022/05/13 05:30:22;;;;;;;4.18;1.58;;;12.40;99.40;;;;;;4970956;28;20622;-78
2022/05/13 05:32:48;;;;;;;3.85;1.55;;;12.50;98.80;;;;;;4977906;28;20030;-78
2022/05/13 05:35:17;;;;;;;5.40;1.48;;;12.60;99.00;;;;;;4975943;28;20034;-78
2022/05/13 05:37:43;;;;;;;6.60;1.65;;;12.80;98.60;;;;;;4991460;28;20026;-77
2022/05/13 05:40:09;;;;;;;9.38;1.73;;;13.00;98.60;;;;;;4992419;28;20040;-78
2022/05/13 05:42:36;;;;;;;4.78;1.67;;;13.10;97.90;;;;;;4990527;28;20077;-76
2022/05/13 05:45:01;;;;;;;6.35;1.83;;;13.20;97.70;;;;;;4989244;28;20255;-79
2022/05/13 05:47:27;;;;;;;7.18;1.60;;;13.40;98.20;;;;;;4988658;28;20033;-78
2022/05/13 05:49:52;;;;;;;6.35;1.45;;;13.50;97.20;;;;;;4972029;28;20112;-78
2022/05/13 05:52:18;;;;;;;4.05;0.93;;;13.50;97.70;;;;;;4974075;28;20058;-78
2022/05/13 05:57:28;;;;;;;4.88;1.48;;;13.60;97.10;;;;;;4990276;28;20056;-78
2022/05/13 05:59:53;;;;;;;8.18;1.98;;;13.70;96.30;;;;;;4990668;28;20042;-78
2022/05/13 06:02:19;;;;;;;4.65;1.55;;;13.70;96.70;;;;;;4970222;28;20040;-78
2022/05/13 06:04:44;;;;;;;3.90;1.20;;;13.70;96.40;;;;;;4976170;28;20044;-78
2022/05/13 06:07:12;;;;;;;4.93;1.55;;;13.70;96.70;;;;;;4972999;28;20057;-78
2022/05/13 06:09:38;;;;;;;7.72;2.17;;;13.80;96.50;;;;;;4960259;28;20038;-77
2022/05/13 06:12:06;;;;;;;8.90;1.27;;;14.00;97.30;;;;;;4971496;28;20556;-78
2022/05/13 06:14:31;;;;;;;5.43;1.42;;;14.20;96.10;;;;;;4974252;28;20557;-78
2022/05/13 06:16:57;;;;;;;2.58;1.10;;;14.30;95.40;;;;;;4993576;28;20034;-78
2022/05/13 06:19:22;;;;;;;4.00;1.67;;;14.40;95.40;;;;;;4989011;28;20030;-78
2022/05/13 06:21:48;;;;;;;10.00;2.63;;;14.50;95.50;;;;;;4957232;28;20593;-79
2022/05/13 06:24:13;;;;;;;10.98;2.33;;;14.40;95.00;;;;;;4991850;28;20436;-79
2022/05/13 06:26:42;;;;;;;13.90;2.10;;;14.70;95.80;;;;;;4989789;28;20038;-78
2022/05/13 06:29:08;;;;;;;3.72;1.25;;;14.80;94.40;;;;;;4988997;28;20037;-79
2022/05/13 06:31:34;;;;;;;6.22;1.95;;;15.10;94.70;;;;;;4969537;28;20536;-79
2022/05/13 06:34:00;;;;;;;4.63;1.33;;;15.10;94.70;;;;;;4975290;28;20477;-79
2022/05/13 06:36:26;;;;;;;7.20;1.98;;;15.20;94.30;;;;;;4972833;28;20038;-79
2022/05/13 06:38:52;;;;;;;9.70;2.05;;;15.50;94.40;;;;;;4977362;28;20037;-79
2022/05/13 06:41:18;;;;;;;4.10;1.70;;;15.50;93.80;;;;;;4972807;28;20025;-79
2022/05/13 06:43:45;;;;;;;5.25;2.05;;;15.70;93.80;;;;;;4989865;28;20123;-79
2022/05/13 06:46:11;;;;;;;10.05;2.55;;;15.70;93.40;;;;;;4992813;28;20037;-79
2022/05/13 06:48:37;;;;;;;8.98;2.45;;;15.60;92.80;;;;;;4989827;28;20413;-79
2022/05/13 06:51:04;;;;;;;7.75;2.00;;;16.00;93.80;;;;;;4974743;28;20477;-80
2022/05/13 06:53:29;;;;;;;2.92;1.10;;;16.20;92.50;;;;;;4988587;28;20514;-80
2022/05/13 06:55:55;;;;;;;6.13;2.55;;;16.30;92.80;;;;;;4990625;28;20172;-79
2022/05/13 06:58:21;;;;;;;10.57;2.15;;;16.60;91.80;;;;;;4974048;28;20045;-80
2022/05/13 07:00:46;;;;;;;9.32;2.83;;;16.80;93.10;;;;;;4975395;28;20030;-79
2022/05/13 07:03:13;;;;;;;7.13;1.23;;;17.50;92.60;;;;;;4987851;28;20528;-80
2022/05/13 07:05:38;;;;;;;5.85;1.65;;;17.00;91.20;;;;;;4972229;28;20049;-80
2022/05/13 07:08:04;;;;;;;3.95;1.77;;;17.30;90.10;;;;;;4981907;28;20025;-80
2022/05/13 07:10:30;;;;;;;9.35;2.72;;;17.40;90.90;;;;;;4972859;28;20629;-80
2022/05/13 07:12:56;;;;;;;6.90;1.67;;;17.60;91.00;;;;;;4973664;28;20030;-80
2022/05/13 07:15:22;;;;;;;5.97;2.28;;;17.70;88.60;;;;;;4985652;28;20036;-80
2022/05/13 07:17:47;;;;;;;11.35;2.45;;;18.00;90.10;;;;;;4969541;28;20113;-80
2022/05/13 07:20:13;;;;;;;10.60;1.98;;;17.60;88.00;;;;;;4968089;28;20116;-80
2022/05/13 07:22:39;;;;;;;7.07;2.13;;;18.00;87.90;;;;;;4971944;28;20409;-80
2022/05/13 07:25:05;;;;;;;4.15;1.80;;;18.30;90.80;;;;;;4971656;28;20034;-80
2022/05/13 07:27:31;;;;;;;6.25;2.55;;;18.10;85.20;;;;;;4987074;28;20626;-80
2022/05/13 07:29:56;;;;;;;9.00;2.35;;;18.40;88.50;;;;;;4986570;28;20206;-80
2022/05/13 07:32:22;;;;;;;7.00;1.60;;;18.70;86.80;;;;;;4970435;28;20399;-81
2022/05/13 07:34:47;;;;;;;8.35;2.45;;;18.60;87.60;;;;;;4991893;28;20034;-81
2022/05/13 07:37:13;;;;;;;6.60;1.98;;;18.80;88.90;;;;;;4988672;28;20030;-80
2022/05/13 07:42:22;;;;;;;5.00;1.60;;;19.40;86.60;;;;;;4977383;28;20052;-81
2022/05/13 07:44:48;;;;;;;8.25;2.00;;;19.40;84.00;;;;;;4957476;28;20026;-81
2022/05/13 07:47:16;;;;;;;6.30;2.22;;;19.60;85.00;;;;;;4958695;28;20034;-81
2022/05/13 07:49:42;;;;;;;7.53;2.10;;;19.90;87.20;;;;;;4973239;28;20026;-81
2022/05/13 07:52:08;;;;;;;7.25;1.73;;;20.10;86.10;;;;;;4989122;28;20042;-81
2022/05/13 07:54:34;;;;;;;6.00;1.52;;;20.10;85.90;;;;;;4973183;28;20464;-81
2022/05/13 07:56:59;;;;;;;7.63;1.50;;;20.30;81.90;;;;;;4984623;28;20470;-81
2022/05/13 07:59:26;;;;;;;4.43;1.60;;;20.60;84.60;;;;;;4984625;28;20088;-81
2022/05/13 08:01:52;;;;;;;7.57;1.88;;;20.40;82.30;;;;;;4989371;28;20100;-80
2022/05/13 08:04:18;;;;;;;6.22;1.92;;;20.00;80.60;;;;;;4988885;28;20072;-81
2022/05/13 08:06:44;;;;;;;5.43;1.50;;;20.50;80.90;;;;;;4969964;28;20599;-81
2022/05/13 08:09:10;;;;;;;8.30;1.83;;;20.90;79.10;;;;;;4972489;28;20033;-80
2022/05/13 08:11:37;;;;;;;5.13;1.88;;;20.80;77.40;;;;;;4970949;28;20077;-81
2022/05/13 08:14:03;;;;;;;12.68;2.33;;;21.00;79.00;;;;;;4962902;28;20549;-81
2022/05/13 08:16:29;;;;;;;5.15;2.17;;;21.30;80.50;;;;;;4956261;28;20101;-81
2022/05/13 08:18:56;;;;;;;4.10;1.95;;;21.30;76.60;;;;;;4984143;28;20077;-81
2022/05/13 08:21:21;;;;;;;8.18;2.17;;;21.40;74.50;;;;;;4970345;28;20714;-81
2022/05/13 08:23:47;;;;;;;6.20;1.65;;;21.20;76.10;;;;;;4985253;28;20157;-81
2022/05/13 08:26:13;;;;;;;10.63;2.20;;;21.60;76.60;;;;;;4970843;28;20389;-81
2022/05/13 08:28:39;;;;;;;8.73;2.05;;;21.80;75.90;;;;;;4986131;28;20140;-81
2022/05/13 08:31:07;;;;;;;4.70;1.85;;;22.20;76.80;;;;;;4990539;28;20053;-81
2022/05/13 08:33:33;;;;;;;12.52;2.08;;;21.90;70.90;;;;;;4975093;28;20069;-82
2022/05/13 08:36:03;;;;;;;4.78;1.67;;;21.30;70.90;;;;;;4971892;28;20081;-82
2022/05/13 08:38:32;;;;;;;7.18;1.77;;;21.80;74.60;;;;;;4969777;28;20034;-82
2022/05/13 08:41:09;;;;;;;6.90;2.22;;;22.40;72.60;;;;;;4984812;28;20686;-82
2022/05/13 08:43:47;;;;;;;4.00;1.42;;;23.60;72.60;;;;;;5003817;28;20140;-83
2022/05/13 08:46:46;;;;;;;6.95;2.25;;;22.80;69.10;;;;;;4955210;28;20084;-83
2022/05/13 08:49:34;;;;;;;7.95;2.47;;;23.20;71.00;;;;;;4971480;28;20033;-83
2022/05/13 08:55:05;;;;;;;5.28;1.90;;;22.20;67.30;;;;;;4994817;28;20049;-84
2022/05/13 08:57:37;;;;;;;4.85;1.77;;;22.40;68.70;;;;;;4968084;28;20064;-84
2022/05/13 09:00:23;;;;;;;4.25;1.88;;;22.30;68.20;;;;;;4977439;28;20124;-84
2022/05/13 09:03:32;;;;;;;2.80;1.52;;;22.20;67.60;;;;;;4978340;28;20046;-84
2022/05/13 09:06:15;;;;;;;8.80;2.38;;;21.90;66.60;;;;;;4994029;28;20066;-84
2022/05/13 09:08:40;;;;;;;6.25;1.48;;;21.90;67.70;;;;;;4968247;28;20041;-85
2022/05/13 09:11:09;;;;;;;3.38;1.52;;;22.30;68.90;;;;;;4988849;28;20105;-84
2022/05/13 09:14:01;;;;;;;4.00;1.40;;;21.80;67.30;;;;;;4996865;28;20034;-84
2022/05/13 09:16:41;;;;;;;3.78;1.67;;;21.90;67.70;;;;;;4956076;28;20056;-84
2022/05/13 09:19:09;;;;;;;5.72;1.83;;;21.60;66.70;;;;;;4996129;28;20204;-84
2022/05/13 09:21:38;;;;;;;9.02;1.95;;;21.60;67.30;;;;;;4993237;28;20038;-84
2022/05/13 09:24:04;;;;;;;5.10;1.23;;;21.50;66.50;;;;;;4993102;28;20109;-84
2022/05/13 09:26:30;;;;;;;7.82;2.15;;;21.40;66.30;;;;;;4993104;28;20548;-84
2022/05/13 09:29:03;;;;;;;5.20;1.35;;;21.40;66.30;;;;;;4989415;28;20129;-84
2022/05/13 09:31:30;;;;;;;10.07;2.00;;;21.10;67.10;;;;;;4985980;28;20034;-84
2022/05/13 09:33:55;;;;;;;10.57;1.63;;;20.70;66.60;;;;;;4962203;28;20030;-84
2022/05/13 09:36:25;;;;;;;4.32;1.50;;;21.10;66.90;;;;;;4990670;28;20092;-84
2022/05/13 09:38:55;;;;;;;3.60;1.13;;;21.20;65.50;;;;;;4991013;28;20037;-84
2022/05/13 09:41:32;;;;;;;3.55;1.38;;;22.40;66.50;;;;;;4973454;28;20061;-84
2022/05/13 09:44:18;;;;;;;3.30;1.30;;;22.00;64.50;;;;;;4976471;28;20034;-85
2022/05/13 09:46:52;;;;;;;3.45;1.60;;;22.20;66.00;;;;;;4990588;28;20042;-84
2022/05/13 09:49:33;;;;;;;7.47;1.70;;;23.40;66.60;;;;;;4969343;28;20053;-85
2022/05/13 09:52:16;;;;;;;3.85;1.13;;;22.60;66.80;;;;;;4962434;28;20034;-84
2022/05/13 09:54:47;;;;;;;2.35;1.08;;;22.60;67.40;;;;;;4952114;28;20050;-85
2022/05/13 09:57:33;;;;;;;5.38;1.63;;;22.60;64.30;;;;;;4969527;28;20410;-85
2022/05/13 10:00:23;;;;;;;8.52;1.40;;;23.00;64.10;;;;;;4978397;28;20026;-85
2022/05/13 10:02:49;;;;;;;4.70;1.60;;;23.50;63.70;;;;;;4968925;28;20509;-85
2022/05/13 10:14:24;;;;;;;7.85;1.80;;;24.50;62.00;;;;;;4947105;28;20381;-86
2022/05/13 10:16:50;;;;;;;5.00;1.25;;;22.90;60.90;;;;;;4937558;28;20042;-85
2022/05/13 10:19:37;;;;;;;7.28;1.50;;;23.50;60.60;;;;;;4927260;28;20030;-86
2022/05/13 10:22:11;;;;;;;5.18;1.30;;;22.80;59.10;;;;;;4934340;28;20062;-86
2022/05/13 10:24:49;;;;;;;5.22;1.30;;;23.10;61.00;;;;;;4954521;28;20042;-86
2022/05/13 10:27:49;;;;;;;7.88;1.77;;;22.90;59.90;;;;;;4946187;28;20111;-86
2022/05/13 10:30:53;;;;;;;5.20;1.23;;;22.90;58.80;;;;;;4915446;28;20558;-86
2022/05/13 10:37:13;;;;;;;4.93;1.50;;;22.80;60.30;;;;;;4955672;28;20486;-85
2022/05/13 10:40:09;;;;;;;4.30;1.27;;;23.30;60.20;;;;;;4903187;28;20467;-85
2022/05/13 10:45:44;;;;;;;4.85;1.35;;;23.10;59.80;;;;;;4926340;28;20048;-84
2022/05/13 10:48:57;;;;;;;1.05;0.65;;;22.80;60.40;;;;;;4940378;28;20506;-86
2022/05/13 10:51:39;;;;;;;6.57;1.92;;;23.10;58.70;;;;;;4922875;28;20039;-85
2022/05/13 10:54:05;;;;;;;1.83;0.82;;;23.10;59.30;;;;;;4920759;28;20035;-86
2022/05/13 10:56:55;;;;;;;3.50;1.50;;;23.20;59.10;;;;;;4933821;28;20581;-84
2022/05/13 10:59:58;;;;;;;3.38;1.20;;;23.00;59.30;;;;;;4923029;28;20030;-85
2022/05/13 11:03:13;;;;;;;5.22;1.60;;;23.30;59.40;;;;;;4923121;28;20038;-85
2022/05/13 11:06:25;;;;;;;1.00;0.63;;;23.60;59.60;;;;;;4938528;28;20047;-85
2022/05/13 11:09:15;;;;;;;6.22;1.67;;;23.60;58.60;;;;;;4928586;28;20036;-84
2022/05/13 11:11:44;;;;;;;5.00;1.60;;;23.30;58.00;;;;;;4943258;28;20043;-85
2022/05/13 11:14:42;;;;;;;3.35;1.48;;;23.80;58.90;;;;;;4908817;28;20479;-86
2022/05/13 11:17:44;;;;;;;7.28;2.15;;;23.60;58.00;;;;;;4910937;28;20117;-85
2022/05/13 11:20:24;;;;;;;2.72;1.00;;;23.80;58.40;;;;;;4938620;28;20083;-85
2022/05/13 11:23:08;;;;;;;3.45;1.50;;;23.60;57.60;;;;;;4914628;28;20049;-85
2022/05/13 11:26:07;;;;;;;8.88;2.58;;;23.50;58.10;;;;;;4918322;28;20058;-86
2022/05/13 11:29:22;;;;;;;7.85;1.67;;;24.40;59.00;;;;;;4923072;28;20070;-86
2022/05/13 11:32:01;;;;;;;6.43;1.35;;;24.40;57.10;;;;;;4924400;28;20086;-87
2022/05/13 11:34:48;;;;;;;6.03;2.08;;;25.60;58.70;;;;;;4940814;28;20138;-86
2022/05/13 11:38:07;;;;;;;3.65;1.23;;;24.90;59.10;;;;;;4958886;28;20724;-87
2022/05/13 11:41:00;;;;;;;2.15;1.23;;;24.90;56.20;;;;;;4930721;28;20039;-87
2022/05/13 11:43:58;;;;;;;8.00;1.95;;;24.90;56.50;;;;;;4938600;28;20074;-86
2022/05/13 11:46:41;;;;;;;3.90;1.80;;;24.50;56.50;;;;;;4932295;28;20459;-87
2022/05/13 11:53:42;;;;;;;5.10;1.33;;;25.40;56.20;;;;;;4943033;28;20482;-86
2022/05/13 11:56:38;;;;;;;4.72;2.00;;;25.50;54.60;;;;;;4945112;28;20031;-87
2022/05/13 11:59:25;;;;;;;4.45;2.08;;;25.80;54.30;;;;;;4938638;28;20023;-85
2022/05/13 12:01:55;;;;;;;2.65;1.83;;;26.10;54.40;;;;;;4938350;28;20027;-85
2022/05/13 12:04:23;;;;;;;4.13;1.75;;;26.00;53.40;;;;;;4921478;28;20044;-84
2022/05/13 12:07:39;;;;;;;4.32;1.60;;;26.00;53.60;;;;;;4921894;28;20023;-85
2022/05/13 12:10:05;;;;;;;4.20;2.03;;;26.10;52.60;;;;;;4924775;28;20039;-85
2022/05/13 12:12:58;;;;;;;3.17;1.50;;;25.80;53.30;;;;;;4904154;28;20031;-85
2022/05/13 12:16:01;;;;;;;5.55;2.05;;;25.90;53.10;;;;;;4925294;28;20059;-84
2022/05/13 12:18:33;;;;;;;9.95;2.80;;;26.00;52.90;;;;;;4920471;28;20111;-84
2022/05/13 12:21:19;;;;;;;4.63;1.98;;;26.10;51.90;;;;;;4922277;28;20032;-84
2022/05/13 12:23:59;;;;;;;6.18;2.10;;;26.10;53.10;;;;;;4941510;28;20142;-84
2022/05/13 12:26:47;;;;;;;6.53;2.33;;;26.50;52.80;;;;;;4932826;28;20082;-82
2022/05/13 12:29:40;;;;;;;5.10;1.75;;;26.50;52.00;;;;;;4937748;28;20239;-82
2022/05/13 12:32:06;;;;;;;6.18;1.92;;;26.40;52.90;;;;;;4925402;28;20551;-82
2022/05/13 12:37:40;;;;;;;5.97;1.75;;;26.50;52.20;;;;;;4931977;28;20038;-82
2022/05/13 12:40:11;;;;;;;4.03;1.63;;;26.30;52.50;;;;;;4938647;28;20170;-82
2022/05/13 12:42:50;;;;;;;2.45;1.67;;;26.40;51.10;;;;;;4924146;28;20115;-82
2022/05/13 12:45:21;;;;;;;6.00;1.40;;;26.50;51.10;;;;;;4957588;28;20119;-81
2022/05/13 12:48:04;;;;;;;8.73;2.58;;;26.70;50.70;;;;;;4940050;28;20452;-81
2022/05/13 12:50:53;;;;;;;6.03;2.08;;;26.30;52.00;;;;;;4936797;28;20035;-81
2022/05/13 12:53:28;;;;;;;9.95;3.40;;;26.90;51.60;;;;;;4927174;28;20035;-81
2022/05/13 12:55:57;;;;;;;4.90;2.65;;;27.00;49.80;;;;;;4954564;28;20121;-81
2022/05/13 12:58:22;;;;;;;5.78;2.30;;;27.10;51.00;;;;;;4921372;28;20031;-81
2022/05/13 13:00:50;;;;;;;4.07;2.22;;;27.40;51.00;;;;;;4911645;28;20376;-80
2022/05/13 13:03:15;;;;;;;8.02;2.90;;;27.60;50.70;;;;;;4909983;28;20531;-79
2022/05/13 13:05:43;;;;;;;4.18;2.38;;;27.80;49.60;;;;;;4922134;28;20123;-79
2022/05/13 13:08:19;;;;;;;4.53;2.47;;;27.90;49.40;;;;;;4934857;28;20098;-79
2022/05/13 13:10:57;;;;;;;7.82;2.25;;;27.60;48.20;;;;;;4923461;28;20546;-79
2022/05/13 13:13:52;;;;;;;8.02;3.10;;;27.50;49.40;;;;;;4922239;28;20122;-79
2022/05/13 13:16:42;;;;;;;8.13;1.83;;;27.70;49.40;;;;;;4935559;28;20043;-79
2022/05/13 13:19:18;;;;;;;5.88;1.65;;;27.40;49.10;;;;;;4926427;28;20055;-80
2022/05/13 13:21:44;;;;;;;6.45;1.90;;;27.70;49.20;;;;;;4927725;28;20031;-79
2022/05/13 13:24:21;;;;;;;9.25;2.03;;;27.80;49.20;;;;;;4911698;28;20500;-78
2022/05/13 13:26:48;;;;;;;7.50;2.15;;;27.90;48.20;;;;;;4916455;28;20039;-79
2022/05/13 13:29:37;;;;;;;6.90;2.25;;;28.10;48.10;;;;;;4904882;28;20127;-79
2022/05/13 13:32:11;;;;;;;2.17;1.50;;;28.20;48.50;;;;;;4922614;28;20034;-79
2022/05/13 13:34:38;;;;;;;6.25;1.50;;;28.40;48.60;;;;;;4909844;28;20043;-78
2022/05/13 13:37:06;;;;;;;7.35;1.88;;;28.40;48.00;;;;;;4925419;28;20039;-79
2022/05/13 13:39:32;;;;;;;3.83;1.70;;;28.50;47.90;;;;;;4942558;28;20095;-78
2022/05/13 13:42:16;;;;;;;6.32;1.67;;;28.40;47.80;;;;;;4909733;28;20365;-78
2022/05/13 13:44:42;;;;;;;4.88;1.70;;;28.40;47.80;;;;;;4923701;28;20039;-79
2022/05/13 13:47:25;;;;;;;7.70;2.05;;;28.40;47.60;;;;;;4909427;28;20079;-78
2022/05/13 13:49:51;;;;;;;8.30;1.83;;;28.60;47.40;;;;;;4930718;28;20051;-78